createdAt,value
2022-10-30T00:01:15.450Z,17.36
2022-10-30T00:03:44.601Z,17.65
2022-10-30T00:06:11.441Z,17.77
2022-10-30T00:08:38.348Z,17.91
2022-10-30T00:11:13.589Z,17.93
2022-10-30T00:13:44.770Z,17.92
2022-10-30T00:16:11.739Z,17.93
2022-10-30T00:18:41.988Z,18.05
2022-10-30T00:21:14.645Z,17.81
2022-10-30T00:23:52.979Z,17.83
2022-10-30T00:26:28.029Z,17.71
2022-10-30T00:28:56.271Z,17.43
2022-10-30T00:31:25.816Z,17.72
2022-10-30T00:33:58.717Z,17.82
2022-10-30T00:36:28.034Z,17.78
2022-10-30T00:38:54.909Z,17.63
2022-10-30T00:41:24.586Z,17.68
2022-10-30T00:43:52.154Z,17.81
2022-10-30T00:46:28.515Z,17.69
2022-10-30T00:49:01.947Z,17.52
2022-10-30T00:51:33.207Z,17.49
2022-10-30T00:54:03.237Z,17.48
2022-10-30T00:56:31.814Z,17.30
2022-10-30T00:59:17.914Z,17.37
2022-10-30T01:01:50.874Z,17.30
2022-10-30T01:04:18.152Z,17.41
2022-10-30T01:06:52.030Z,17.20
2022-10-30T01:09:25.158Z,17.40
2022-10-30T01:11:51.958Z,17.49
2022-10-30T01:14:22.080Z,17.34
2022-10-30T01:17:18.923Z,17.33
2022-10-30T01:20:23.059Z,17.25
2022-10-30T01:23:00.259Z,17.20
2022-10-30T01:26:06.636Z,17.05
2022-10-30T01:28:48.280Z,17.30
2022-10-30T01:31:40.924Z,17.41
2022-10-30T01:34:20.461Z,17.57
2022-10-30T01:37:05.122Z,17.53
2022-10-30T01:39:41.863Z,17.48
2022-10-30T01:42:48.559Z,17.61
2022-10-30T01:45:46.023Z,17.68
2022-10-30T01:48:15.494Z,17.57
2022-10-30T01:50:47.816Z,17.64
2022-10-30T01:53:44.271Z,17.57
2022-10-30T01:56:34.242Z,17.56
2022-10-30T01:59:39.012Z,17.64
2022-10-30T02:02:11.384Z,17.55
2022-10-30T02:04:41.270Z,17.63
2022-10-30T02:07:08.309Z,17.73
2022-10-30T02:09:35.498Z,17.66
2022-10-30T02:12:03.546Z,17.74
2022-10-30T02:14:44.087Z,17.86
2022-10-30T02:17:13.834Z,17.72
2022-10-30T02:19:40.649Z,17.67
2022-10-30T02:22:09.869Z,17.44
2022-10-30T02:24:36.784Z,17.17
2022-10-30T02:27:03.748Z,17.28
2022-10-30T02:29:35.219Z,17.31
2022-10-30T02:32:02.653Z,17.30
2022-10-30T02:34:32.543Z,17.41
2022-10-30T02:36:59.370Z,17.46
2022-10-30T02:39:26.220Z,17.37
2022-10-30T02:41:55.625Z,17.36
2022-10-30T02:44:22.476Z,17.33
2022-10-30T02:46:54.277Z,17.43
2022-10-30T02:49:23.166Z,17.37
2022-10-30T02:51:49.979Z,17.23
2022-10-30T02:54:16.859Z,17.17
2022-10-30T02:56:50.604Z,17.25
2022-10-30T02:59:20.598Z,17.03
2022-10-30T03:01:47.524Z,16.93
2022-10-30T03:04:16.644Z,17.01
2022-10-30T03:06:43.575Z,17.10
2022-10-30T03:09:12.993Z,17.14
2022-10-30T03:11:39.787Z,17.07
2022-10-30T03:14:08.843Z,16.98
2022-10-30T03:16:39.277Z,16.92
2022-10-30T03:19:06.123Z,16.61
2022-10-30T03:21:37.838Z,16.74
2022-10-30T03:24:07.445Z,16.70
2022-10-30T03:26:36.745Z,16.82
2022-10-30T03:29:03.956Z,16.81
2022-10-30T03:31:32.558Z,16.79
2022-10-30T03:34:01.914Z,16.80
2022-10-30T03:36:28.757Z,16.98
2022-10-30T03:38:56.530Z,16.93
2022-10-30T03:41:23.357Z,16.89
2022-10-30T03:43:54.706Z,16.84
2022-10-30T03:46:21.512Z,16.79
2022-10-30T03:48:51.736Z,16.85
2022-10-30T03:51:18.572Z,16.92
2022-10-30T03:53:45.403Z,17.01
2022-10-30T03:56:14.786Z,16.95
2022-10-30T03:58:41.582Z,17.04
2022-10-30T04:01:12.763Z,17.01
2022-10-30T04:03:39.769Z,16.95
2022-10-30T04:06:07.737Z,16.82
2022-10-30T04:08:34.537Z,16.87
2022-10-30T04:11:01.409Z,16.93
2022-10-30T04:13:28.309Z,16.85
2022-10-30T04:15:58.018Z,16.67
2022-10-30T04:18:26.161Z,16.58
2022-10-30T04:20:55.428Z,16.67
2022-10-30T04:23:22.773Z,16.90
2022-10-30T04:25:49.652Z,16.99
2022-10-30T04:28:17.077Z,17.00
2022-10-30T04:30:49.460Z,16.95
2022-10-30T04:33:16.271Z,17.04
2022-10-30T04:35:43.896Z,17.10
2022-10-30T04:38:14.153Z,17.23
2022-10-30T04:40:44.191Z,17.08
2022-10-30T04:43:12.329Z,17.09
2022-10-30T04:45:40.228Z,16.97
2022-10-30T04:48:20.226Z,17.06
2022-10-30T04:50:47.120Z,17.14
2022-10-30T04:53:19.644Z,17.01
2022-10-30T04:55:54.356Z,16.86
2022-10-30T04:58:23.716Z,16.65
2022-10-30T05:00:53.145Z,16.71
2022-10-30T05:03:26.842Z,16.70
2022-10-30T05:06:08.108Z,16.55
2022-10-30T05:08:37.472Z,16.52
2022-10-30T05:11:07.836Z,16.56
2022-10-30T05:13:34.660Z,16.55
2022-10-30T05:16:01.488Z,16.33
2022-10-30T05:18:28.310Z,16.43
2022-10-30T05:20:55.095Z,16.40
2022-10-30T05:23:21.951Z,16.35
2022-10-30T05:25:48.757Z,16.21
2022-10-30T05:28:16.232Z,16.33
2022-10-30T05:30:43.055Z,16.26
2022-10-30T05:33:12.236Z,16.19
2022-10-30T05:35:44.812Z,16.17
2022-10-30T05:38:12.545Z,16.35
2022-10-30T05:40:41.955Z,16.23
2022-10-30T05:43:11.314Z,16.15
2022-10-30T05:45:40.679Z,16.20
2022-10-30T05:48:07.968Z,16.06
2022-10-30T05:50:34.906Z,15.91
2022-10-30T05:53:04.779Z,15.81
2022-10-30T05:55:32.086Z,15.88
2022-10-30T05:58:07.300Z,15.90
2022-10-30T06:00:40.107Z,15.98
2022-10-30T06:03:10.786Z,15.90
2022-10-30T06:05:40.726Z,15.90
2022-10-30T06:08:08.214Z,15.91
2022-10-30T06:10:35.378Z,16.02
2022-10-30T06:13:05.204Z,16.15
2022-10-30T06:15:32.900Z,16.01
2022-10-30T06:18:00.768Z,15.88
2022-10-30T06:20:36.557Z,15.96
2022-10-30T06:23:06.993Z,15.93
2022-10-30T06:25:40.769Z,15.71
2022-10-30T06:28:10.809Z,15.78
2022-10-30T06:30:40.411Z,15.88
2022-10-30T06:33:09.130Z,15.69
2022-10-30T06:35:36.052Z,15.68
2022-10-30T06:38:03.639Z,15.93
2022-10-30T06:40:33.429Z,16.11
2022-10-30T06:43:00.581Z,16.33
2022-10-30T06:45:27.750Z,16.50
2022-10-30T06:47:57.064Z,16.53
2022-10-30T06:50:29.224Z,16.25
2022-10-30T06:52:58.224Z,16.26
2022-10-30T06:55:25.169Z,16.46
2022-10-30T06:57:57.461Z,16.79
2022-10-30T07:00:26.953Z,16.88
2022-10-30T07:03:04.597Z,17.26
2022-10-30T07:05:31.464Z,17.82
2022-10-30T07:07:58.859Z,18.14
2022-10-30T07:10:28.347Z,18.43
2022-10-30T07:12:57.374Z,18.90
2022-10-30T07:15:26.353Z,19.57
2022-10-30T07:18:02.943Z,19.98
2022-10-30T07:20:33.063Z,20.74
2022-10-30T07:23:00.693Z,21.43
2022-10-30T07:25:27.877Z,21.17
2022-10-30T07:27:56.017Z,21.13
2022-10-30T07:30:28.174Z,21.82
2022-10-30T07:33:05.950Z,22.58
2022-10-30T07:35:37.591Z,23.19
2022-10-30T07:38:08.969Z,24.17
2022-10-30T07:40:37.550Z,24.27
2022-10-30T07:43:06.039Z,24.32
2022-10-30T07:45:36.387Z,24.40
2022-10-30T07:48:04.054Z,23.91
2022-10-30T07:50:34.637Z,23.83
2022-10-30T07:53:02.485Z,23.81
2022-10-30T07:55:32.689Z,24.10
2022-10-30T07:58:03.888Z,24.29
2022-10-30T08:00:34.311Z,25.29
2022-10-30T08:03:02.888Z,25.77
2022-10-30T08:05:31.355Z,26.06
2022-10-30T08:07:59.817Z,26.40
2022-10-30T08:10:27.982Z,26.34
2022-10-30T08:12:57.528Z,26.45
2022-10-30T08:15:27.953Z,25.62
2022-10-30T08:17:57.509Z,26.67
2022-10-30T08:20:30.622Z,27.37
2022-10-30T08:23:01.819Z,27.86
2022-10-30T08:25:35.239Z,28.18
2022-10-30T08:28:12.808Z,28.79
2022-10-30T08:30:44.640Z,30.44
2022-10-30T08:33:20.738Z,31.04
2022-10-30T08:35:55.222Z,31.66
2022-10-30T08:38:25.711Z,32.53
2022-10-30T08:40:52.900Z,32.61
2022-10-30T08:43:20.633Z,32.26
2022-10-30T08:45:49.788Z,31.51
2022-10-30T08:48:16.897Z,31.45
2022-10-30T08:50:48.918Z,31.85
2022-10-30T08:53:16.095Z,31.79
2022-10-30T08:55:43.238Z,32.61
2022-10-30T08:58:10.292Z,32.12
2022-10-30T09:00:37.109Z,30.43
2022-10-30T09:03:04.478Z,31.96
2022-10-30T09:05:31.596Z,32.92
2022-10-30T09:08:01.316Z,33.58
2022-10-30T09:10:33.691Z,33.07
2022-10-30T09:13:02.457Z,33.96
2022-10-30T09:15:29.803Z,33.42
2022-10-30T09:18:08.648Z,33.44
2022-10-30T09:20:38.348Z,33.84
2022-10-30T09:23:07.807Z,35.07
2022-10-30T09:25:34.777Z,35.49
2022-10-30T09:28:03.739Z,35.52
2022-10-30T09:30:33.179Z,35.42
2022-10-30T09:33:02.738Z,35.77
2022-10-30T09:35:33.038Z,36.79
2022-10-30T09:38:00.012Z,35.82
2022-10-30T09:41:20.679Z,35.48
2022-10-30T09:43:59.607Z,34.90
2022-10-30T09:46:37.639Z,36.70
2022-10-30T09:49:20.691Z,37.28
2022-10-30T09:52:08.597Z,37.34
2022-10-30T09:54:50.495Z,39.30
2022-10-30T09:57:31.132Z,39.60
2022-10-30T10:00:04.260Z,39.89
2022-10-30T10:02:59.557Z,40.47
2022-10-30T10:05:43.491Z,39.53
2022-10-30T10:08:19.479Z,39.58
2022-10-30T10:10:53.311Z,39.01
2022-10-30T10:13:43.485Z,39.23
2022-10-30T10:16:29.388Z,39.95
2022-10-30T10:19:17.058Z,40.79
2022-10-30T10:22:07.851Z,41.73
2022-10-30T10:24:39.201Z,41.42
2022-10-30T10:27:46.635Z,40.12
2022-10-30T10:30:20.876Z,37.35
2022-10-30T10:33:20.479Z,35.36
2022-10-30T10:36:05.110Z,36.81
2022-10-30T10:39:02.273Z,37.91
2022-10-30T10:42:25.342Z,39.04
2022-10-30T10:45:12.911Z,39.62
2022-10-30T10:48:25.365Z,39.78
2022-10-30T10:51:09.829Z,38.98
2022-10-30T10:53:56.402Z,38.73
2022-10-30T10:56:34.220Z,39.70
2022-10-30T10:59:08.929Z,40.21
2022-10-30T11:01:43.223Z,40.75
2022-10-30T11:04:47.070Z,41.72
2022-10-30T11:07:29.652Z,40.27
2022-10-30T11:10:02.269Z,40.12
2022-10-30T11:12:40.153Z,41.29
2022-10-30T11:15:29.583Z,40.03
2022-10-30T11:18:16.729Z,39.68
2022-10-30T11:21:03.983Z,38.49
2022-10-30T11:23:40.229Z,37.69
2022-10-30T11:26:21.419Z,37.51
2022-10-30T11:28:58.457Z,36.65
2022-10-30T11:31:37.953Z,37.84
2022-10-30T11:34:34.533Z,37.49
2022-10-30T11:37:01.997Z,38.52
2022-10-30T11:39:34.016Z,38.91
2022-10-30T11:42:18.682Z,40.59
2022-10-30T11:44:51.494Z,38.07
2022-10-30T11:50:08.983Z,37.13
2022-10-30T11:52:41.268Z,37.41
2022-10-30T11:55:21.051Z,38.47
2022-10-30T11:57:55.962Z,39.52
2022-10-30T12:00:25.780Z,39.85
2022-10-30T12:03:05.755Z,40.92
2022-10-30T12:05:46.417Z,40.02
2022-10-30T12:08:19.221Z,39.86
2022-10-30T12:10:52.864Z,39.83
2022-10-30T12:13:25.278Z,38.90
2022-10-30T12:16:06.243Z,39.02
2022-10-30T12:18:33.872Z,37.91
2022-10-30T12:21:02.135Z,37.66
2022-10-30T12:23:32.676Z,38.90
2022-10-30T12:26:08.904Z,40.51
2022-10-30T12:28:36.464Z,40.26
2022-10-30T12:31:13.510Z,40.99
2022-10-30T12:33:52.736Z,40.86
2022-10-30T12:36:23.715Z,38.63
2022-10-30T12:38:58.389Z,38.42
2022-10-30T12:42:02.033Z,38.60
2022-10-30T12:45:08.853Z,39.55
2022-10-30T12:47:41.721Z,39.59
2022-10-30T12:50:17.513Z,36.67
2022-10-30T12:52:54.694Z,36.71
2022-10-30T12:55:27.837Z,37.13
2022-10-30T12:58:24.082Z,36.84
2022-10-30T13:01:35.052Z,37.21
2022-10-30T13:04:24.495Z,36.32
2022-10-30T13:07:09.781Z,37.01
2022-10-30T13:09:48.569Z,34.76
2022-10-30T13:12:23.890Z,34.94
2022-10-30T13:15:23.161Z,35.32
2022-10-30T13:17:50.685Z,35.05
2022-10-30T13:20:18.507Z,34.58
2022-10-30T13:22:56.512Z,35.62
2022-10-30T13:25:47.610Z,33.97
2022-10-30T13:28:26.044Z,33.98
2022-10-30T13:31:12.866Z,34.24
2022-10-30T13:33:54.581Z,33.68
2022-10-30T13:36:33.249Z,33.90
2022-10-30T13:39:39.038Z,33.65
2022-10-30T13:42:31.463Z,34.08
2022-10-30T13:45:23.210Z,34.26
2022-10-30T13:47:59.692Z,34.62
2022-10-30T13:51:03.417Z,34.73
2022-10-30T13:53:36.770Z,35.13
2022-10-30T13:56:15.157Z,33.80
2022-10-30T13:59:09.257Z,32.69
2022-10-30T14:02:17.386Z,33.23
2022-10-30T14:04:55.645Z,33.40
2022-10-30T14:08:06.342Z,33.76
2022-10-30T14:10:44.585Z,33.24
2022-10-30T14:13:26.987Z,33.24
2022-10-30T14:16:07.060Z,33.22
2022-10-30T14:18:47.153Z,33.19
2022-10-30T14:21:52.247Z,33.36
2022-10-30T14:24:28.775Z,32.74
2022-10-30T14:27:11.225Z,32.82
2022-10-30T14:29:51.679Z,32.60
2022-10-30T14:32:18.460Z,31.78
2022-10-30T14:34:51.063Z,31.47
2022-10-30T14:37:23.879Z,31.40
2022-10-30T14:39:51.889Z,31.49
2022-10-30T14:42:43.229Z,31.14
2022-10-30T14:45:33.317Z,30.52
2022-10-30T14:48:11.513Z,29.38
2022-10-30T14:51:41.499Z,28.63
2022-10-30T14:54:29.273Z,28.40
2022-10-30T14:56:56.239Z,27.49
2022-10-30T14:59:32.297Z,27.54
2022-10-30T15:02:16.507Z,27.30
2022-10-30T15:04:56.137Z,27.13
2022-10-30T15:07:49.369Z,26.92
2022-10-30T15:10:29.764Z,26.77
2022-10-30T15:13:21.793Z,26.62
2022-10-30T15:16:08.718Z,26.39
2022-10-30T15:18:35.664Z,26.22
2022-10-30T15:21:07.727Z,26.13
2022-10-30T15:23:37.236Z,26.17
2022-10-30T15:26:20.018Z,25.88
2022-10-30T15:28:52.719Z,25.62
2022-10-30T15:31:29.967Z,25.36
2022-10-30T15:33:59.908Z,25.16
2022-10-30T15:36:42.903Z,24.80
2022-10-30T15:39:16.220Z,24.77
2022-10-30T15:41:45.850Z,24.71
2022-10-30T15:44:19.184Z,24.68
2022-10-30T15:46:51.485Z,24.59
2022-10-30T15:49:35.062Z,24.39
2022-10-30T15:52:14.625Z,23.90
2022-10-30T15:54:49.098Z,23.92
2022-10-30T15:57:57.347Z,23.93
2022-10-30T16:00:31.401Z,23.81
2022-10-30T16:03:16.877Z,23.63
2022-10-30T16:05:48.225Z,23.52
2022-10-30T16:08:22.520Z,23.43
2022-10-30T16:10:52.877Z,23.26
2022-10-30T16:13:30.147Z,23.20
2022-10-30T16:15:57.340Z,23.04
2022-10-30T16:18:31.113Z,22.81
2022-10-30T16:21:06.559Z,22.55
2022-10-30T16:23:55.730Z,22.48
2022-10-30T16:26:33.718Z,22.46
2022-10-30T16:29:16.992Z,22.32
2022-10-30T16:31:49.993Z,22.26
2022-10-30T16:34:35.112Z,22.16
2022-10-30T16:37:07.170Z,21.81
2022-10-30T16:39:40.054Z,21.77
2022-10-30T16:42:07.536Z,21.67
2022-10-30T16:44:40.732Z,21.60
2022-10-30T16:47:16.705Z,21.63
2022-10-30T16:49:57.936Z,21.50
2022-10-30T16:52:37.964Z,21.47
2022-10-30T16:55:13.338Z,21.57
2022-10-30T16:57:45.990Z,21.63
2022-10-30T17:00:30.542Z,21.47
2022-10-30T17:03:10.958Z,21.41
2022-10-30T17:05:42.374Z,21.17
2022-10-30T17:08:43.044Z,21.22
2022-10-30T17:11:34.103Z,21.27
2022-10-30T17:14:06.826Z,21.24
2022-10-30T17:16:37.479Z,21.20
2022-10-30T17:19:32.230Z,20.89
2022-10-30T17:22:07.675Z,20.93
2022-10-30T17:24:37.800Z,21.09
2022-10-30T17:27:11.236Z,21.14
2022-10-30T17:29:37.977Z,20.72
2022-10-30T17:32:15.346Z,20.56
2022-10-30T17:34:44.288Z,20.73
2022-10-30T17:37:13.308Z,20.78
2022-10-30T17:39:40.285Z,20.74
2022-10-30T17:42:10.120Z,20.51
2022-10-30T17:44:37.229Z,20.54
2022-10-30T17:47:23.735Z,20.33
2022-10-30T17:49:50.661Z,20.33
2022-10-30T17:52:23.105Z,20.39
2022-10-30T17:54:52.153Z,20.14
2022-10-30T17:57:18.975Z,20.23
2022-10-30T17:59:45.846Z,20.11
2022-10-30T18:02:19.421Z,19.77
2022-10-30T18:04:47.692Z,19.74
2022-10-30T18:07:16.793Z,19.61
2022-10-30T18:09:44.491Z,19.83
2022-10-30T18:12:16.354Z,19.69
2022-10-30T18:14:45.498Z,19.77
2022-10-30T18:17:15.278Z,19.90
2022-10-30T18:19:42.096Z,19.69
2022-10-30T18:22:12.603Z,19.55
2022-10-30T18:24:39.455Z,19.54
2022-10-30T18:27:06.318Z,19.47
2022-10-30T18:29:33.159Z,19.31
2022-10-30T18:32:02.401Z,19.19
2022-10-30T18:34:32.372Z,19.26
2022-10-30T18:37:01.712Z,19.28
2022-10-30T18:39:30.721Z,19.30
2022-10-30T18:41:58.965Z,19.18
2022-10-30T18:44:25.765Z,19.25
2022-10-30T18:46:52.609Z,19.07
2022-10-30T18:49:24.406Z,18.84
2022-10-30T18:51:53.771Z,19.12
2022-10-30T18:54:23.061Z,19.13
2022-10-30T18:56:49.886Z,19.00
2022-10-30T18:59:16.678Z,18.85
2022-10-30T19:01:45.921Z,18.83
2022-10-30T19:04:15.682Z,18.96
2022-10-30T19:06:44.861Z,18.83
2022-10-30T19:09:11.682Z,18.88
2022-10-30T19:11:43.313Z,18.91
2022-10-30T19:14:15.881Z,19.01
2022-10-30T19:16:45.091Z,18.88
2022-10-30T19:19:14.860Z,18.76
2022-10-30T19:21:44.058Z,18.72
2022-10-30T19:24:14.955Z,18.69
2022-10-30T19:26:41.773Z,18.57
2022-10-30T19:29:08.759Z,18.43
2022-10-30T19:31:35.985Z,18.36
2022-10-30T19:34:03.406Z,18.30
2022-10-30T19:36:39.168Z,18.48
2022-10-30T19:39:24.157Z,18.51
2022-10-30T19:41:51.117Z,18.32
2022-10-30T19:44:20.543Z,18.19
2022-10-30T19:46:47.505Z,18.09
2022-10-30T19:49:23.544Z,17.84
2022-10-30T19:51:50.712Z,17.94
2022-10-30T19:54:19.831Z,17.99
2022-10-30T19:56:46.808Z,17.94
2022-10-30T19:59:15.246Z,17.90
2022-10-30T20:01:44.959Z,17.86
2022-10-30T20:04:12.688Z,17.86
2022-10-30T20:06:39.742Z,17.77
2022-10-30T20:09:12.634Z,17.73
2022-10-30T20:11:39.632Z,17.56
2022-10-30T20:14:09.000Z,17.49
2022-10-30T20:16:36.056Z,17.52
2022-10-30T20:19:25.093Z,17.28
2022-10-30T20:21:55.470Z,17.13
2022-10-30T20:24:25.863Z,17.49
2022-10-30T20:26:56.221Z,17.60
2022-10-30T20:29:24.465Z,17.54
2022-10-30T20:31:51.389Z,17.37
2022-10-30T20:34:23.260Z,17.38
2022-10-30T20:36:50.069Z,17.34
2022-10-30T20:39:17.145Z,17.43
2022-10-30T20:41:44.118Z,17.33
2022-10-30T20:44:12.614Z,17.09
2022-10-30T20:46:39.539Z,17.21
2022-10-30T20:49:17.072Z,17.18
2022-10-30T20:51:47.497Z,17.09
2022-10-30T20:54:14.908Z,16.97
2022-10-30T20:56:46.556Z,16.93
2022-10-30T20:59:15.942Z,16.91
2022-10-30T21:01:42.897Z,16.84
2022-10-30T21:04:12.126Z,16.88
2022-10-30T21:06:41.279Z,16.71
2022-10-30T21:09:08.289Z,16.77
2022-10-30T21:11:35.188Z,16.91
2022-10-30T21:14:02.170Z,16.81
2022-10-30T21:16:33.623Z,16.80
2022-10-30T21:19:03.574Z,16.82
2022-10-30T21:21:33.481Z,16.74
2022-10-30T21:24:00.318Z,16.83
2022-10-30T21:26:29.692Z,16.88
2022-10-30T21:28:58.613Z,16.78
2022-10-30T21:31:25.548Z,16.53
2022-10-30T21:33:52.578Z,16.41
2022-10-30T21:36:20.395Z,16.45
2022-10-30T21:38:49.873Z,16.57
2022-10-30T21:41:22.061Z,16.31
2022-10-30T21:43:54.126Z,16.21
2022-10-30T21:46:29.481Z,16.15
2022-10-30T21:48:58.959Z,16.24
2022-10-30T21:51:29.794Z,16.54
2022-10-30T21:54:01.790Z,16.58
2022-10-30T21:56:31.309Z,16.59
2022-10-30T21:59:00.354Z,16.42
2022-10-30T22:01:31.909Z,16.51
2022-10-30T22:04:03.313Z,16.36
2022-10-30T22:06:32.933Z,16.14
2022-10-30T22:09:04.915Z,16.30
2022-10-30T22:11:34.658Z,16.32
2022-10-30T22:14:03.665Z,16.23
2022-10-30T22:16:40.255Z,16.09
2022-10-30T22:19:10.139Z,16.17
2022-10-30T22:21:37.285Z,16.03
2022-10-30T22:24:07.025Z,16.19
2022-10-30T22:26:36.108Z,16.34
2022-10-30T22:29:03.296Z,16.17
2022-10-30T22:31:33.093Z,16.13
2022-10-30T22:34:01.663Z,16.14
2022-10-30T22:36:31.910Z,16.20
2022-10-30T22:39:01.378Z,16.11
2022-10-30T22:41:34.438Z,16.12
2022-10-30T22:44:13.291Z,16.15
2022-10-30T22:46:40.965Z,16.23
2022-10-30T22:49:10.780Z,16.21
2022-10-30T22:51:42.291Z,16.08
2022-10-30T22:54:13.096Z,16.03
2022-10-30T22:56:44.850Z,16.13
2022-10-30T22:59:14.613Z,16.11
2022-10-30T23:01:46.723Z,15.96
2022-10-30T23:04:16.143Z,16.05
2022-10-30T23:06:46.741Z,16.17
2022-10-30T23:09:22.257Z,16.27
2022-10-30T23:11:49.645Z,16.24
2022-10-30T23:14:16.693Z,16.22
2022-10-30T23:16:46.098Z,16.19
2022-10-30T23:19:13.025Z,16.22
2022-10-30T23:21:39.920Z,16.19
2022-10-30T23:24:07.418Z,16.08
2022-10-30T23:26:35.957Z,16.02
2022-10-30T23:29:03.897Z,15.86
2022-10-30T23:31:39.575Z,15.76
2022-10-30T23:34:10.467Z,15.88
2022-10-30T23:36:41.083Z,15.70
2022-10-30T23:39:19.680Z,15.70
2022-10-30T23:41:46.654Z,15.73
2022-10-30T23:44:17.941Z,15.67
2022-10-30T23:46:44.924Z,15.79
2022-10-30T23:49:14.252Z,15.68
2022-10-30T23:51:41.222Z,15.61
2022-10-30T23:54:08.288Z,15.52
2022-10-30T23:56:35.160Z,15.33
2022-10-30T23:59:04.127Z,15.30
